Wellesley Island, New York
Current Conditions -  °F | °C
As of 10:56 AM on Wednesday 26 Nov 2014 (Local Time) from KART Reporting Station
Overcast Overcast  
Wind Chill: 26°   Ceiling: 3700
Heat Index: 34°   Visibility: 10mi
Dew Point: 22°   Wind: 10mph
Humidity: 61%   Direction: 60°ENE
Pressure: 30.19"   Gusts: NA
Location:  44.29°N, 76.01°W
Report Text: KART 261556Z AUTO 06009KT 10SM OVC037 01/M06 A3019 RMK AO2 SLP227 T00111056
Loading
Personal Weather Stations






























Interactive Weather Map New forecast layout! Learn more

10-Day Weather Forecast

Advertisements
Track Severe Weather on mobile